sensor_id;sensor_type;location;lat;lon;timestamp;P1;durP1;ratioP1;P2;durP2;ratioP2
33150;SDS011;19508;42.578;23.416;2023-02-10T00:00:50;25.10;;;9.05;;
33150;SDS011;19508;42.578;23.416;2023-02-10T00:03:16;26.88;;;10.45;;
33150;SDS011;19508;42.578;23.416;2023-02-10T00:05:41;30.20;;;10.27;;
33150;SDS011;19508;42.578;23.416;2023-02-10T00:08:06;25.52;;;9.93;;
33150;SDS011;19508;42.578;23.416;2023-02-10T00:10:32;28.10;;;10.80;;
33150;SDS011;19508;42.578;23.416;2023-02-10T00:12:57;38.95;;;13.75;;
33150;SDS011;19508;42.578;23.416;2023-02-10T00:15:23;28.42;;;11.32;;
33150;SDS011;19508;42.578;23.416;2023-02-10T00:17:48;21.25;;;9.57;;
33150;SDS011;19508;42.578;23.416;2023-02-10T00:20:13;39.83;;;11.77;;
33150;SDS011;19508;42.578;23.416;2023-02-10T00:22:39;44.80;;;16.30;;
33150;SDS011;19508;42.578;23.416;2023-02-10T00:25:04;32.95;;;11.10;;
33150;SDS011;19508;42.578;23.416;2023-02-10T00:27:30;30.20;;;10.10;;
33150;SDS011;19508;42.578;23.416;2023-02-10T00:29:55;26.70;;;10.95;;
33150;SDS011;19508;42.578;23.416;2023-02-10T00:32:21;21.77;;;9.70;;
33150;SDS011;19508;42.578;23.416;2023-02-10T00:34:46;26.33;;;8.55;;
33150;SDS011;19508;42.578;23.416;2023-02-10T00:37:12;50.03;;;17.35;;
33150;SDS011;19508;42.578;23.416;2023-02-10T00:39:37;30.23;;;11.70;;
33150;SDS011;19508;42.578;23.416;2023-02-10T00:42:03;32.03;;;13.07;;
33150;SDS011;19508;42.578;23.416;2023-02-10T00:44:28;18.05;;;8.90;;
33150;SDS011;19508;42.578;23.416;2023-02-10T00:46:54;21.85;;;10.40;;
33150;SDS011;19508;42.578;23.416;2023-02-10T00:49:19;28.90;;;12.65;;
33150;SDS011;19508;42.578;23.416;2023-02-10T00:51:45;30.05;;;10.90;;
33150;SDS011;19508;42.578;23.416;2023-02-10T00:54:13;26.27;;;10.35;;
33150;SDS011;19508;42.578;23.416;2023-02-10T00:56:41;17.00;;;7.45;;
33150;SDS011;19508;42.578;23.416;2023-02-10T00:59:08;33.35;;;10.95;;
33150;SDS011;19508;42.578;23.416;2023-02-10T01:01:34;23.48;;;9.15;;
33150;SDS011;19508;42.578;23.416;2023-02-10T01:04:00;26.73;;;10.27;;
33150;SDS011;19508;42.578;23.416;2023-02-10T01:06:25;26.88;;;8.90;;
33150;SDS011;19508;42.578;23.416;2023-02-10T01:08:50;28.02;;;9.98;;
33150;SDS011;19508;42.578;23.416;2023-02-10T01:11:16;16.15;;;7.95;;
33150;SDS011;19508;42.578;23.416;2023-02-10T01:13:43;16.30;;;8.18;;
33150;SDS011;19508;42.578;23.416;2023-02-10T01:16:13;22.92;;;8.75;;
33150;SDS011;19508;42.578;23.416;2023-02-10T01:18:41;25.50;;;8.25;;
33150;SDS011;19508;42.578;23.416;2023-02-10T01:21:11;35.72;;;10.23;;
33150;SDS011;19508;42.578;23.416;2023-02-10T01:23:39;30.50;;;9.73;;
33150;SDS011;19508;42.578;23.416;2023-02-10T01:26:05;20.30;;;8.73;;
33150;SDS011;19508;42.578;23.416;2023-02-10T01:28:31;30.15;;;9.38;;
33150;SDS011;19508;42.578;23.416;2023-02-10T01:30:56;20.67;;;7.47;;
33150;SDS011;19508;42.578;23.416;2023-02-10T01:33:21;21.52;;;8.45;;
33150;SDS011;19508;42.578;23.416;2023-02-10T01:35:47;19.02;;;8.25;;
33150;SDS011;19508;42.578;23.416;2023-02-10T01:38:13;20.58;;;8.13;;
33150;SDS011;19508;42.578;23.416;2023-02-10T01:40:38;16.75;;;7.50;;
33150;SDS011;19508;42.578;23.416;2023-02-10T01:43:09;17.75;;;7.15;;
33150;SDS011;19508;42.578;23.416;2023-02-10T01:45:40;19.00;;;7.72;;
33150;SDS011;19508;42.578;23.416;2023-02-10T01:48:06;18.60;;;6.70;;
33150;SDS011;19508;42.578;23.416;2023-02-10T01:50:38;28.05;;;7.20;;
33150;SDS011;19508;42.578;23.416;2023-02-10T01:53:12;7.45;;;4.60;;
33150;SDS011;19508;42.578;23.416;2023-02-10T01:55:39;20.85;;;7.45;;
33150;SDS011;19508;42.578;23.416;2023-02-10T01:58:08;11.50;;;5.82;;
33150;SDS011;19508;42.578;23.416;2023-02-10T02:00:36;15.63;;;5.85;;
33150;SDS011;19508;42.578;23.416;2023-02-10T02:03:02;23.65;;;8.20;;
33150;SDS011;19508;42.578;23.416;2023-02-10T02:05:47;24.98;;;7.70;;
33150;SDS011;19508;42.578;23.416;2023-02-10T02:16:12;19.38;;;6.20;;
33150;SDS011;19508;42.578;23.416;2023-02-10T02:33:00;20.85;;;8.05;;
33150;SDS011;19508;42.578;23.416;2023-02-10T02:35:34;20.92;;;6.13;;
33150;SDS011;19508;42.578;23.416;2023-02-10T02:38:06;16.52;;;7.35;;
33150;SDS011;19508;42.578;23.416;2023-02-10T02:40:32;12.32;;;4.80;;
33150;SDS011;19508;42.578;23.416;2023-02-10T02:42:57;9.95;;;4.43;;
33150;SDS011;19508;42.578;23.416;2023-02-10T02:45:26;17.73;;;6.18;;
33150;SDS011;19508;42.578;23.416;2023-02-10T02:48:14;21.63;;;8.05;;
33150;SDS011;19508;42.578;23.416;2023-02-10T02:51:03;16.55;;;7.45;;
33150;SDS011;19508;42.578;23.416;2023-02-10T02:56:30;14.63;;;6.40;;
33150;SDS011;19508;42.578;23.416;2023-02-10T02:59:13;20.25;;;6.35;;
33150;SDS011;19508;42.578;23.416;2023-02-10T03:02:00;22.30;;;7.03;;
33150;SDS011;19508;42.578;23.416;2023-02-10T03:04:30;28.10;;;8.50;;
33150;SDS011;19508;42.578;23.416;2023-02-10T03:06:58;18.48;;;7.70;;
33150;SDS011;19508;42.578;23.416;2023-02-10T03:09:24;20.63;;;7.75;;
33150;SDS011;19508;42.578;23.416;2023-02-10T03:11:51;17.45;;;7.82;;
33150;SDS011;19508;42.578;23.416;2023-02-10T03:14:16;24.20;;;9.70;;
33150;SDS011;19508;42.578;23.416;2023-02-10T03:16:41;16.83;;;6.55;;
33150;SDS011;19508;42.578;23.416;2023-02-10T03:19:07;18.85;;;7.53;;
33150;SDS011;19508;42.578;23.416;2023-02-10T03:21:32;27.30;;;8.85;;
33150;SDS011;19508;42.578;23.416;2023-02-10T03:23:58;24.45;;;9.32;;
33150;SDS011;19508;42.578;23.416;2023-02-10T03:26:25;29.27;;;9.40;;
33150;SDS011;19508;42.578;23.416;2023-02-10T03:28:52;26.50;;;10.07;;
33150;SDS011;19508;42.578;23.416;2023-02-10T03:31:17;24.65;;;10.20;;
33150;SDS011;19508;42.578;23.416;2023-02-10T03:33:42;24.33;;;10.30;;
33150;SDS011;19508;42.578;23.416;2023-02-10T03:36:08;30.13;;;10.13;;
33150;SDS011;19508;42.578;23.416;2023-02-10T03:38:33;23.67;;;10.50;;
33150;SDS011;19508;42.578;23.416;2023-02-10T03:40:59;35.47;;;10.63;;
33150;SDS011;19508;42.578;23.416;2023-02-10T03:43:24;15.05;;;7.78;;
33150;SDS011;19508;42.578;23.416;2023-02-10T03:45:49;17.42;;;6.95;;
33150;SDS011;19508;42.578;23.416;2023-02-10T03:48:15;22.58;;;9.27;;
33150;SDS011;19508;42.578;23.416;2023-02-10T03:50:41;26.95;;;10.00;;
33150;SDS011;19508;42.578;23.416;2023-02-10T03:53:07;30.73;;;10.68;;
33150;SDS011;19508;42.578;23.416;2023-02-10T03:55:33;20.95;;;8.70;;
33150;SDS011;19508;42.578;23.416;2023-02-10T03:58:00;25.88;;;10.63;;
33150;SDS011;19508;42.578;23.416;2023-02-10T04:00:26;27.92;;;10.02;;
33150;SDS011;19508;42.578;23.416;2023-02-10T04:02:51;25.15;;;9.93;;
33150;SDS011;19508;42.578;23.416;2023-02-10T04:05:17;21.23;;;9.77;;
33150;SDS011;19508;42.578;23.416;2023-02-10T04:07:42;31.98;;;11.38;;
33150;SDS011;19508;42.578;23.416;2023-02-10T04:10:08;34.88;;;12.93;;
33150;SDS011;19508;42.578;23.416;2023-02-10T04:12:33;30.05;;;11.25;;
33150;SDS011;19508;42.578;23.416;2023-02-10T04:14:59;19.92;;;8.35;;
33150;SDS011;19508;42.578;23.416;2023-02-10T04:17:24;10.00;;;4.65;;
33150;SDS011;19508;42.578;23.416;2023-02-10T04:19:50;15.00;;;7.80;;
33150;SDS011;19508;42.578;23.416;2023-02-10T04:22:15;19.17;;;7.57;;
33150;SDS011;19508;42.578;23.416;2023-02-10T04:24:41;18.02;;;8.68;;
33150;SDS011;19508;42.578;23.416;2023-02-10T04:27:06;19.48;;;8.50;;
33150;SDS011;19508;42.578;23.416;2023-02-10T04:29:32;24.42;;;9.27;;
33150;SDS011;19508;42.578;23.416;2023-02-10T04:31:58;28.83;;;11.93;;
33150;SDS011;19508;42.578;23.416;2023-02-10T04:34:24;25.50;;;9.25;;
33150;SDS011;19508;42.578;23.416;2023-02-10T04:36:49;21.05;;;10.48;;
33150;SDS011;19508;42.578;23.416;2023-02-10T04:39:15;25.30;;;10.85;;
33150;SDS011;19508;42.578;23.416;2023-02-10T04:41:40;26.85;;;9.98;;
33150;SDS011;19508;42.578;23.416;2023-02-10T04:44:05;18.77;;;7.72;;
33150;SDS011;19508;42.578;23.416;2023-02-10T04:46:31;23.58;;;7.93;;
33150;SDS011;19508;42.578;23.416;2023-02-10T04:48:56;49.05;;;14.48;;
33150;SDS011;19508;42.578;23.416;2023-02-10T04:51:22;58.53;;;15.38;;
33150;SDS011;19508;42.578;23.416;2023-02-10T04:53:47;34.45;;;11.90;;
33150;SDS011;19508;42.578;23.416;2023-02-10T04:56:13;49.35;;;15.30;;
33150;SDS011;19508;42.578;23.416;2023-02-10T04:58:39;43.10;;;12.23;;
33150;SDS011;19508;42.578;23.416;2023-02-10T05:01:05;52.30;;;17.67;;
33150;SDS011;19508;42.578;23.416;2023-02-10T05:03:30;48.75;;;15.32;;
33150;SDS011;19508;42.578;23.416;2023-02-10T05:05:56;34.28;;;10.55;;
33150;SDS011;19508;42.578;23.416;2023-02-10T05:08:21;48.80;;;13.20;;
33150;SDS011;19508;42.578;23.416;2023-02-10T05:10:51;74.05;;;19.02;;
33150;SDS011;19508;42.578;23.416;2023-02-10T05:13:17;28.65;;;9.85;;
33150;SDS011;19508;42.578;23.416;2023-02-10T05:15:43;22.58;;;7.68;;
33150;SDS011;19508;42.578;23.416;2023-02-10T05:18:09;31.05;;;9.25;;
33150;SDS011;19508;42.578;23.416;2023-02-10T05:20:35;30.75;;;7.65;;
33150;SDS011;19508;42.578;23.416;2023-02-10T05:23:00;18.40;;;7.15;;
33150;SDS011;19508;42.578;23.416;2023-02-10T05:25:26;20.85;;;7.70;;
33150;SDS011;19508;42.578;23.416;2023-02-10T05:27:51;17.90;;;6.40;;
33150;SDS011;19508;42.578;23.416;2023-02-10T05:30:17;17.00;;;7.75;;
33150;SDS011;19508;42.578;23.416;2023-02-10T05:32:43;30.52;;;9.02;;
33150;SDS011;19508;42.578;23.416;2023-02-10T05:35:08;33.15;;;9.55;;
33150;SDS011;19508;42.578;23.416;2023-02-10T05:37:34;57.67;;;17.70;;
33150;SDS011;19508;42.578;23.416;2023-02-10T05:40:00;87.00;;;26.27;;
33150;SDS011;19508;42.578;23.416;2023-02-10T05:42:26;42.97;;;13.02;;
33150;SDS011;19508;42.578;23.416;2023-02-10T05:44:51;16.77;;;7.78;;
33150;SDS011;19508;42.578;23.416;2023-02-10T05:47:17;13.07;;;6.10;;
33150;SDS011;19508;42.578;23.416;2023-02-10T05:49:42;15.30;;;7.47;;
33150;SDS011;19508;42.578;23.416;2023-02-10T05:52:08;25.90;;;8.23;;
33150;SDS011;19508;42.578;23.416;2023-02-10T05:54:33;16.88;;;7.43;;
33150;SDS011;19508;42.578;23.416;2023-02-10T05:57:09;16.30;;;6.90;;
33150;SDS011;19508;42.578;23.416;2023-02-10T05:59:34;23.02;;;8.38;;
33150;SDS011;19508;42.578;23.416;2023-02-10T06:02:00;34.58;;;11.00;;
33150;SDS011;19508;42.578;23.416;2023-02-10T06:04:25;23.63;;;8.70;;
33150;SDS011;19508;42.578;23.416;2023-02-10T06:06:50;13.25;;;6.93;;
33150;SDS011;19508;42.578;23.416;2023-02-10T06:09:16;20.88;;;8.38;;
33150;SDS011;19508;42.578;23.416;2023-02-10T06:11:41;22.42;;;9.73;;
33150;SDS011;19508;42.578;23.416;2023-02-10T06:14:07;19.90;;;9.10;;
33150;SDS011;19508;42.578;23.416;2023-02-10T06:16:33;15.18;;;7.65;;
33150;SDS011;19508;42.578;23.416;2023-02-10T06:18:59;12.90;;;5.38;;
33150;SDS011;19508;42.578;23.416;2023-02-10T06:21:24;24.52;;;6.72;;
33150;SDS011;19508;42.578;23.416;2023-02-10T06:23:50;20.77;;;8.82;;
33150;SDS011;19508;42.578;23.416;2023-02-10T06:26:16;27.17;;;10.32;;
33150;SDS011;19508;42.578;23.416;2023-02-10T06:28:42;20.90;;;8.52;;
33150;SDS011;19508;42.578;23.416;2023-02-10T06:31:07;20.75;;;8.48;;
33150;SDS011;19508;42.578;23.416;2023-02-10T06:33:38;15.75;;;6.38;;
33150;SDS011;19508;42.578;23.416;2023-02-10T06:36:04;19.17;;;7.88;;
33150;SDS011;19508;42.578;23.416;2023-02-10T06:38:32;21.48;;;7.85;;
33150;SDS011;19508;42.578;23.416;2023-02-10T06:40:58;18.15;;;8.75;;
33150;SDS011;19508;42.578;23.416;2023-02-10T06:43:24;27.17;;;9.98;;
33150;SDS011;19508;42.578;23.416;2023-02-10T06:45:49;20.65;;;8.00;;
33150;SDS011;19508;42.578;23.416;2023-02-10T06:48:14;29.48;;;12.95;;
33150;SDS011;19508;42.578;23.416;2023-02-10T06:50:40;19.45;;;9.05;;
33150;SDS011;19508;42.578;23.416;2023-02-10T06:53:05;28.17;;;10.25;;
33150;SDS011;19508;42.578;23.416;2023-02-10T06:55:31;22.35;;;8.90;;
33150;SDS011;19508;42.578;23.416;2023-02-10T06:57:59;23.75;;;9.57;;
33150;SDS011;19508;42.578;23.416;2023-02-10T07:00:25;16.05;;;7.72;;
33150;SDS011;19508;42.578;23.416;2023-02-10T07:02:51;29.27;;;11.00;;
33150;SDS011;19508;42.578;23.416;2023-02-10T07:05:16;15.68;;;5.93;;
33150;SDS011;19508;42.578;23.416;2023-02-10T07:07:42;23.60;;;9.80;;
33150;SDS011;19508;42.578;23.416;2023-02-10T07:10:08;17.50;;;7.53;;
33150;SDS011;19508;42.578;23.416;2023-02-10T07:12:33;13.48;;;5.40;;
33150;SDS011;19508;42.578;23.416;2023-02-10T07:14:59;9.18;;;5.72;;
33150;SDS011;19508;42.578;23.416;2023-02-10T07:17:24;25.98;;;9.68;;
33150;SDS011;19508;42.578;23.416;2023-02-10T07:19:50;14.88;;;6.57;;
33150;SDS011;19508;42.578;23.416;2023-02-10T07:22:16;21.08;;;9.00;;
33150;SDS011;19508;42.578;23.416;2023-02-10T07:24:41;22.08;;;8.82;;
33150;SDS011;19508;42.578;23.416;2023-02-10T07:27:06;23.95;;;9.23;;
33150;SDS011;19508;42.578;23.416;2023-02-10T07:29:32;45.95;;;20.48;;
33150;SDS011;19508;42.578;23.416;2023-02-10T07:31:57;54.33;;;23.10;;
33150;SDS011;19508;42.578;23.416;2023-02-10T07:34:23;27.20;;;14.60;;
33150;SDS011;19508;42.578;23.416;2023-02-10T07:36:50;15.38;;;7.10;;
33150;SDS011;19508;42.578;23.416;2023-02-10T07:39:22;17.77;;;8.32;;
33150;SDS011;19508;42.578;23.416;2023-02-10T07:41:49;19.40;;;9.07;;
33150;SDS011;19508;42.578;23.416;2023-02-10T07:44:15;24.98;;;9.13;;
33150;SDS011;19508;42.578;23.416;2023-02-10T07:46:40;19.58;;;9.25;;
33150;SDS011;19508;42.578;23.416;2023-02-10T07:49:06;19.73;;;8.00;;
33150;SDS011;19508;42.578;23.416;2023-02-10T07:51:31;17.50;;;7.70;;
33150;SDS011;19508;42.578;23.416;2023-02-10T07:53:57;15.95;;;7.75;;
33150;SDS011;19508;42.578;23.416;2023-02-10T07:56:22;18.30;;;7.97;;
33150;SDS011;19508;42.578;23.416;2023-02-10T07:58:48;18.10;;;7.70;;
33150;SDS011;19508;42.578;23.416;2023-02-10T08:01:13;17.52;;;7.63;;
33150;SDS011;19508;42.578;23.416;2023-02-10T08:03:39;16.40;;;8.15;;
33150;SDS011;19508;42.578;23.416;2023-02-10T08:06:04;20.45;;;8.23;;
33150;SDS011;19508;42.578;23.416;2023-02-10T08:08:30;19.73;;;7.88;;
33150;SDS011;19508;42.578;23.416;2023-02-10T08:10:56;19.48;;;9.18;;
33150;SDS011;19508;42.578;23.416;2023-02-10T08:13:21;20.55;;;8.93;;
33150;SDS011;19508;42.578;23.416;2023-02-10T08:15:47;29.85;;;12.68;;
33150;SDS011;19508;42.578;23.416;2023-02-10T08:18:13;50.70;;;19.95;;
33150;SDS011;19508;42.578;23.416;2023-02-10T08:20:38;25.63;;;10.02;;
33150;SDS011;19508;42.578;23.416;2023-02-10T08:23:07;41.78;;;15.15;;
33150;SDS011;19508;42.578;23.416;2023-02-10T08:25:41;28.15;;;11.48;;
33150;SDS011;19508;42.578;23.416;2023-02-10T08:28:07;27.83;;;10.63;;
33150;SDS011;19508;42.578;23.416;2023-02-10T08:30:33;17.02;;;8.45;;
33150;SDS011;19508;42.578;23.416;2023-02-10T08:32:59;21.15;;;9.35;;
33150;SDS011;19508;42.578;23.416;2023-02-10T08:35:24;20.30;;;8.32;;
33150;SDS011;19508;42.578;23.416;2023-02-10T08:37:50;18.70;;;9.50;;
33150;SDS011;19508;42.578;23.416;2023-02-10T08:40:16;25.20;;;9.95;;
33150;SDS011;19508;42.578;23.416;2023-02-10T08:42:41;23.83;;;10.82;;
33150;SDS011;19508;42.578;23.416;2023-02-10T08:45:07;25.35;;;10.98;;
33150;SDS011;19508;42.578;23.416;2023-02-10T08:47:33;29.95;;;12.43;;
33150;SDS011;19508;42.578;23.416;2023-02-10T08:49:59;27.58;;;11.77;;
33150;SDS011;19508;42.578;23.416;2023-02-10T08:52:25;30.98;;;13.82;;
33150;SDS011;19508;42.578;23.416;2023-02-10T08:54:50;22.70;;;10.90;;
33150;SDS011;19508;42.578;23.416;2023-02-10T08:57:16;26.88;;;11.82;;
33150;SDS011;19508;42.578;23.416;2023-02-10T08:59:41;24.23;;;11.00;;
33150;SDS011;19508;42.578;23.416;2023-02-10T09:02:09;44.45;;;20.13;;
33150;SDS011;19508;42.578;23.416;2023-02-10T09:04:36;33.65;;;14.15;;
33150;SDS011;19508;42.578;23.416;2023-02-10T09:07:01;34.45;;;14.20;;
33150;SDS011;19508;42.578;23.416;2023-02-10T09:09:27;28.70;;;12.98;;
33150;SDS011;19508;42.578;23.416;2023-02-10T09:11:52;34.35;;;14.75;;
33150;SDS011;19508;42.578;23.416;2023-02-10T09:14:19;31.77;;;13.32;;
33150;SDS011;19508;42.578;23.416;2023-02-10T09:16:45;31.05;;;13.25;;
33150;SDS011;19508;42.578;23.416;2023-02-10T09:19:11;30.63;;;13.57;;
33150;SDS011;19508;42.578;23.416;2023-02-10T09:21:36;23.55;;;9.68;;
33150;SDS011;19508;42.578;23.416;2023-02-10T09:24:02;34.05;;;13.07;;
33150;SDS011;19508;42.578;23.416;2023-02-10T09:26:27;31.08;;;11.68;;
33150;SDS011;19508;42.578;23.416;2023-02-10T09:28:53;24.17;;;11.50;;
33150;SDS011;19508;42.578;23.416;2023-02-10T09:31:18;44.42;;;18.50;;
33150;SDS011;19508;42.578;23.416;2023-02-10T09:33:44;30.30;;;14.60;;
33150;SDS011;19508;42.578;23.416;2023-02-10T09:36:12;27.00;;;11.98;;
33150;SDS011;19508;42.578;23.416;2023-02-10T09:38:39;36.95;;;13.15;;
33150;SDS011;19508;42.578;23.416;2023-02-10T09:46:47;41.70;;;14.60;;
33150;SDS011;19508;42.578;23.416;2023-02-10T09:54:59;36.45;;;16.95;;
33150;SDS011;19508;42.578;23.416;2023-02-10T09:57:37;41.83;;;17.10;;
33150;SDS011;19508;42.578;23.416;2023-02-10T10:00:11;40.85;;;17.65;;
33150;SDS011;19508;42.578;23.416;2023-02-10T10:02:50;39.55;;;16.52;;
33150;SDS011;19508;42.578;23.416;2023-02-10T10:08:02;32.65;;;14.90;;
33150;SDS011;19508;42.578;23.416;2023-02-10T10:10:36;35.00;;;15.65;;
33150;SDS011;19508;42.578;23.416;2023-02-10T10:13:19;39.10;;;16.17;;
33150;SDS011;19508;42.578;23.416;2023-02-10T10:15:59;42.20;;;16.30;;
33150;SDS011;19508;42.578;23.416;2023-02-10T10:18:41;46.22;;;16.83;;
33150;SDS011;19508;42.578;23.416;2023-02-10T10:21:25;39.72;;;16.50;;
33150;SDS011;19508;42.578;23.416;2023-02-10T10:29:26;40.97;;;16.92;;
33150;SDS011;19508;42.578;23.416;2023-02-10T10:35:16;48.83;;;16.63;;
33150;SDS011;19508;42.578;23.416;2023-02-10T10:38:11;37.08;;;16.98;;
33150;SDS011;19508;42.578;23.416;2023-02-10T10:40:43;44.83;;;16.90;;
33150;SDS011;19508;42.578;23.416;2023-02-10T10:43:17;36.25;;;16.17;;
33150;SDS011;19508;42.578;23.416;2023-02-10T10:45:49;42.70;;;15.98;;
33150;SDS011;19508;42.578;23.416;2023-02-10T10:48:21;34.75;;;16.20;;
33150;SDS011;19508;42.578;23.416;2023-02-10T10:50:52;39.53;;;15.82;;
33150;SDS011;19508;42.578;23.416;2023-02-10T10:56:01;38.92;;;15.55;;
33150;SDS011;19508;42.578;23.416;2023-02-10T11:01:02;34.17;;;14.43;;
33150;SDS011;19508;42.578;23.416;2023-02-10T11:03:29;37.47;;;15.57;;
33150;SDS011;19508;42.578;23.416;2023-02-10T11:08:27;37.88;;;15.32;;
33150;SDS011;19508;42.578;23.416;2023-02-10T11:10:58;37.88;;;16.20;;
33150;SDS011;19508;42.578;23.416;2023-02-10T11:13:27;31.50;;;15.30;;
33150;SDS011;19508;42.578;23.416;2023-02-10T11:18:36;22.88;;;11.40;;
33150;SDS011;19508;42.578;23.416;2023-02-10T11:21:05;31.08;;;13.27;;
33150;SDS011;19508;42.578;23.416;2023-02-10T11:23:35;28.98;;;12.80;;
33150;SDS011;19508;42.578;23.416;2023-02-10T11:26:25;31.38;;;12.80;;
33150;SDS011;19508;42.578;23.416;2023-02-10T11:28:52;19.30;;;9.43;;
33150;SDS011;19508;42.578;23.416;2023-02-10T11:33:57;25.48;;;12.13;;
33150;SDS011;19508;42.578;23.416;2023-02-10T11:36:37;30.08;;;11.80;;
33150;SDS011;19508;42.578;23.416;2023-02-10T11:39:05;30.73;;;13.13;;
33150;SDS011;19508;42.578;23.416;2023-02-10T11:41:41;25.83;;;13.15;;
33150;SDS011;19508;42.578;23.416;2023-02-10T11:44:23;31.77;;;13.85;;
33150;SDS011;19508;42.578;23.416;2023-02-10T11:47:23;28.88;;;13.02;;
33150;SDS011;19508;42.578;23.416;2023-02-10T11:49:47;27.70;;;10.35;;
33150;SDS011;19508;42.578;23.416;2023-02-10T11:52:14;24.65;;;11.68;;
33150;SDS011;19508;42.578;23.416;2023-02-10T11:54:41;40.67;;;14.10;;
33150;SDS011;19508;42.578;23.416;2023-02-10T12:10:53;43.30;;;14.77;;
33150;SDS011;19508;42.578;23.416;2023-02-10T12:29:29;30.23;;;15.32;;
33150;SDS011;19508;42.578;23.416;2023-02-10T12:46:12;30.02;;;14.52;;
33150;SDS011;19508;42.578;23.416;2023-02-10T12:49:04;44.95;;;16.00;;
33150;SDS011;19508;42.578;23.416;2023-02-10T12:54:50;39.08;;;16.55;;
33150;SDS011;19508;42.578;23.416;2023-02-10T12:57:21;38.78;;;16.05;;
33150;SDS011;19508;42.578;23.416;2023-02-10T13:00:04;34.45;;;15.52;;
33150;SDS011;19508;42.578;23.416;2023-02-10T13:02:39;45.33;;;15.65;;
33150;SDS011;19508;42.578;23.416;2023-02-10T13:05:08;43.78;;;17.13;;
33150;SDS011;19508;42.578;23.416;2023-02-10T13:07:40;31.92;;;16.33;;
33150;SDS011;19508;42.578;23.416;2023-02-10T13:12:45;39.72;;;18.40;;
33150;SDS011;19508;42.578;23.416;2023-02-10T13:15:28;39.25;;;18.13;;
33150;SDS011;19508;42.578;23.416;2023-02-10T13:17:58;48.35;;;18.92;;
33150;SDS011;19508;42.578;23.416;2023-02-10T13:28:25;39.53;;;17.50;;
33150;SDS011;19508;42.578;23.416;2023-02-10T13:31:15;37.42;;;16.75;;
33150;SDS011;19508;42.578;23.416;2023-02-10T13:34:04;46.92;;;17.92;;
33150;SDS011;19508;42.578;23.416;2023-02-10T13:39:54;34.60;;;15.85;;
33150;SDS011;19508;42.578;23.416;2023-02-10T13:42:29;42.10;;;17.15;;
33150;SDS011;19508;42.578;23.416;2023-02-10T13:47:37;34.10;;;16.35;;
33150;SDS011;19508;42.578;23.416;2023-02-10T13:52:47;38.83;;;16.83;;
33150;SDS011;19508;42.578;23.416;2023-02-10T13:55:25;39.55;;;18.00;;
33150;SDS011;19508;42.578;23.416;2023-02-10T14:00:29;35.05;;;15.95;;
33150;SDS011;19508;42.578;23.416;2023-02-10T14:11:55;49.95;;;18.40;;
33150;SDS011;19508;42.578;23.416;2023-02-10T14:14:04;40.50;;;17.70;;
33150;SDS011;19508;42.578;23.416;2023-02-10T14:16:44;39.60;;;18.95;;
33150;SDS011;19508;42.578;23.416;2023-02-10T14:19:29;51.42;;;19.77;;
33150;SDS011;19508;42.578;23.416;2023-02-10T14:21:57;44.67;;;17.80;;
33150;SDS011;19508;42.578;23.416;2023-02-10T14:24:26;52.05;;;18.20;;
33150;SDS011;19508;42.578;23.416;2023-02-10T14:26:55;50.72;;;18.23;;
33150;SDS011;19508;42.578;23.416;2023-02-10T14:29:25;38.58;;;17.25;;
33150;SDS011;19508;42.578;23.416;2023-02-10T14:31:57;38.88;;;18.05;;
33150;SDS011;19508;42.578;23.416;2023-02-10T14:34:28;48.15;;;18.20;;
33150;SDS011;19508;42.578;23.416;2023-02-10T14:36:57;47.50;;;19.00;;
33150;SDS011;19508;42.578;23.416;2023-02-10T14:39:37;67.22;;;27.55;;
33150;SDS011;19508;42.578;23.416;2023-02-10T14:42:03;126.82;;;43.53;;
33150;SDS011;19508;42.578;23.416;2023-02-10T14:44:32;111.05;;;44.22;;
33150;SDS011;19508;42.578;23.416;2023-02-10T14:47:02;112.72;;;44.22;;
33150;SDS011;19508;42.578;23.416;2023-02-10T14:49:28;109.00;;;45.78;;
33150;SDS011;19508;42.578;23.416;2023-02-10T14:51:58;99.65;;;42.47;;
33150;SDS011;19508;42.578;23.416;2023-02-10T14:54:25;67.93;;;28.70;;
33150;SDS011;19508;42.578;23.416;2023-02-10T14:56:55;58.63;;;26.13;;
33150;SDS011;19508;42.578;23.416;2023-02-10T14:59:22;50.05;;;22.80;;
33150;SDS011;19508;42.578;23.416;2023-02-10T15:01:57;69.13;;;26.80;;
33150;SDS011;19508;42.578;23.416;2023-02-10T15:04:24;61.92;;;24.52;;
33150;SDS011;19508;42.578;23.416;2023-02-10T15:06:55;64.53;;;25.63;;
33150;SDS011;19508;42.578;23.416;2023-02-10T15:09:23;72.28;;;29.10;;
33150;SDS011;19508;42.578;23.416;2023-02-10T15:11:59;84.18;;;33.10;;
33150;SDS011;19508;42.578;23.416;2023-02-10T15:17:12;60.27;;;23.83;;
33150;SDS011;19508;42.578;23.416;2023-02-10T15:20:49;62.42;;;24.15;;
33150;SDS011;19508;42.578;23.416;2023-02-10T15:22:39;71.32;;;24.70;;
33150;SDS011;19508;42.578;23.416;2023-02-10T15:27:44;77.63;;;26.00;;
33150;SDS011;19508;42.578;23.416;2023-02-10T15:30:20;77.82;;;31.02;;
33150;SDS011;19508;42.578;23.416;2023-02-10T15:32:48;79.10;;;30.92;;
33150;SDS011;19508;42.578;23.416;2023-02-10T15:35:16;90.25;;;36.67;;
33150;SDS011;19508;42.578;23.416;2023-02-10T15:37:41;84.30;;;34.95;;
33150;SDS011;19508;42.578;23.416;2023-02-10T15:45:48;93.47;;;33.92;;
33150;SDS011;19508;42.578;23.416;2023-02-10T15:48:21;85.55;;;35.60;;
33150;SDS011;19508;42.578;23.416;2023-02-10T15:50:47;82.72;;;33.95;;
33150;SDS011;19508;42.578;23.416;2023-02-10T15:53:18;101.00;;;39.65;;
33150;SDS011;19508;42.578;23.416;2023-02-10T15:55:48;148.02;;;50.33;;
33150;SDS011;19508;42.578;23.416;2023-02-10T15:58:14;189.68;;;53.30;;
33150;SDS011;19508;42.578;23.416;2023-02-10T16:00:41;120.95;;;41.85;;
33150;SDS011;19508;42.578;23.416;2023-02-10T16:03:09;108.15;;;36.30;;
33150;SDS011;19508;42.578;23.416;2023-02-10T16:05:36;107.57;;;38.88;;
33150;SDS011;19508;42.578;23.416;2023-02-10T16:08:26;106.47;;;35.20;;
33150;SDS011;19508;42.578;23.416;2023-02-10T16:10:50;81.82;;;28.02;;
33150;SDS011;19508;42.578;23.416;2023-02-10T16:13:16;75.80;;;25.67;;
33150;SDS011;19508;42.578;23.416;2023-02-10T16:15:42;66.20;;;27.15;;
33150;SDS011;19508;42.578;23.416;2023-02-10T16:18:14;135.95;;;39.03;;
33150;SDS011;19508;42.578;23.416;2023-02-10T16:20:45;97.78;;;35.15;;
33150;SDS011;19508;42.578;23.416;2023-02-10T16:23:14;93.57;;;32.60;;
33150;SDS011;19508;42.578;23.416;2023-02-10T16:25:42;104.90;;;36.65;;
33150;SDS011;19508;42.578;23.416;2023-02-10T16:28:09;99.65;;;37.75;;
33150;SDS011;19508;42.578;23.416;2023-02-10T16:30:37;82.45;;;32.78;;
33150;SDS011;19508;42.578;23.416;2023-02-10T16:33:03;202.75;;;68.50;;
33150;SDS011;19508;42.578;23.416;2023-02-10T16:35:28;166.40;;;53.97;;
33150;SDS011;19508;42.578;23.416;2023-02-10T16:37:55;110.75;;;42.55;;
33150;SDS011;19508;42.578;23.416;2023-02-10T16:40:33;121.78;;;44.53;;
33150;SDS011;19508;42.578;23.416;2023-02-10T16:43:01;105.40;;;43.95;;
33150;SDS011;19508;42.578;23.416;2023-02-10T16:45:29;88.28;;;36.85;;
33150;SDS011;19508;42.578;23.416;2023-02-10T16:47:56;81.28;;;34.50;;
33150;SDS011;19508;42.578;23.416;2023-02-10T16:50:28;81.60;;;33.50;;